createdAt,value
2019-01-30T00:00:14.660Z,98525.34
2019-01-30T00:02:43.146Z,98520.92
2019-01-30T00:05:09.721Z,98524.77
2019-01-30T00:07:36.929Z,98518.05
2019-01-30T00:10:08.103Z,98518.68
2019-01-30T00:12:34.664Z,98509.36
2019-01-30T00:15:00.998Z,98511.03
2019-01-30T00:17:27.614Z,98510.65
2019-01-30T00:19:54.944Z,98514.77
2019-01-30T00:22:21.230Z,98506.98
2019-01-30T00:24:47.570Z,98506.39
2019-01-30T00:27:14.132Z,98462.55
2019-01-30T00:29:40.457Z,98499.70
2019-01-30T00:32:06.797Z,98500.41
2019-01-30T00:34:33.108Z,98499.13
2019-01-30T00:36:59.727Z,98496.92
2019-01-30T00:39:26.292Z,98489.30
2019-01-30T00:41:52.612Z,98485.61
2019-01-30T00:44:18.935Z,98478.52
2019-01-30T00:46:45.516Z,98484.45
2019-01-30T00:49:11.836Z,98482.71
2019-01-30T00:51:38.134Z,98486.13
2019-01-30T00:54:04.469Z,98479.23
2019-01-30T00:56:30.757Z,98478.67
2019-01-30T00:58:57.341Z,98476.48
2019-01-30T01:01:23.635Z,98480.52
2019-01-30T01:03:50.228Z,98478.00
2019-01-30T01:06:16.770Z,98476.73
2019-01-30T01:08:43.145Z,98481.35
2019-01-30T01:11:09.880Z,98477.36
2019-01-30T01:13:36.198Z,98475.95
2019-01-30T01:16:02.711Z,98479.48
2019-01-30T01:18:29.759Z,98473.30
2019-01-30T01:20:56.084Z,98475.09
2019-01-30T01:23:22.510Z,98468.03
2019-01-30T01:25:49.098Z,98469.52
2019-01-30T01:28:15.695Z,98469.59
2019-01-30T01:30:43.307Z,98466.54
2019-01-30T01:33:09.629Z,98458.39
2019-01-30T01:35:35.949Z,98466.75
2019-01-30T01:38:02.462Z,98462.50
2019-01-30T01:40:28.793Z,98457.73
2019-01-30T01:42:55.112Z,98456.45
2019-01-30T01:45:23.469Z,98453.57
2019-01-30T01:47:49.862Z,98451.33
2019-01-30T01:50:19.037Z,98447.66
2019-01-30T01:52:45.837Z,98447.98
2019-01-30T01:55:13.003Z,98442.14
2019-01-30T01:57:39.411Z,98438.13
2019-01-30T02:00:13.494Z,98438.98
2019-01-30T02:02:41.266Z,98436.66
2019-01-30T02:05:11.492Z,98433.77
2019-01-30T02:07:37.785Z,98424.08
2019-01-30T02:10:09.494Z,98419.45
2019-01-30T02:12:37.339Z,98417.50
2019-01-30T02:15:09.347Z,98412.05
2019-01-30T02:17:35.646Z,98413.53
2019-01-30T02:20:10.151Z,98402.27
2019-01-30T02:22:36.737Z,98398.02
2019-01-30T02:25:07.818Z,98392.95
2019-01-30T02:27:34.253Z,98390.69
2019-01-30T02:30:00.549Z,98385.46
2019-01-30T02:32:27.142Z,98378.39
2019-01-30T02:34:53.703Z,98373.33
2019-01-30T02:37:20.032Z,98366.62
2019-01-30T02:39:46.339Z,98363.97
2019-01-30T02:42:12.905Z,98363.81
2019-01-30T02:44:39.221Z,98352.39
2019-01-30T02:47:05.536Z,98356.94
2019-01-30T02:49:32.146Z,98354.19
2019-01-30T02:51:58.706Z,98347.23
2019-01-30T02:54:25.032Z,98348.48
2019-01-30T02:56:51.570Z,98348.73
2019-01-30T02:59:18.146Z,98355.12
2019-01-30T03:01:49.028Z,98348.38
2019-01-30T03:04:15.347Z,98344.87
2019-01-30T03:06:41.779Z,98338.73
2019-01-30T03:09:08.337Z,98346.31
2019-01-30T03:11:34.937Z,98340.92
2019-01-30T03:14:01.246Z,98337.97
2019-01-30T03:16:27.845Z,98335.66
2019-01-30T03:18:54.254Z,98326.66
2019-01-30T03:21:20.855Z,98329.63
2019-01-30T03:23:48.458Z,98333.63
2019-01-30T03:26:14.797Z,98326.44
2019-01-30T03:28:41.093Z,98324.77
2019-01-30T03:31:18.043Z,98325.53
2019-01-30T03:33:37.548Z,98321.47
2019-01-30T03:36:03.911Z,98319.38
2019-01-30T03:38:30.198Z,98320.34
2019-01-30T03:40:56.774Z,98317.62
2019-01-30T03:43:23.078Z,98317.06
2019-01-30T03:45:49.393Z,98317.16
2019-01-30T03:48:16.567Z,98305.92
2019-01-30T03:50:42.906Z,98304.86
2019-01-30T03:53:09.563Z,98309.42
2019-01-30T03:55:36.126Z,98303.68
2019-01-30T03:58:02.718Z,98303.10
2019-01-30T04:00:30.052Z,98299.38
2019-01-30T04:02:56.633Z,98300.05
2019-01-30T04:05:23.170Z,98304.39
2019-01-30T04:07:50.580Z,98302.84
2019-01-30T04:10:20.914Z,98303.58
2019-01-30T04:12:47.451Z,98309.92
2019-01-30T04:15:14.300Z,98303.38
2019-01-30T04:17:40.818Z,98303.58
2019-01-30T04:20:12.969Z,98301.51
2019-01-30T04:22:39.554Z,98298.73
2019-01-30T04:25:07.921Z,98295.79
2019-01-30T04:27:35.596Z,98300.08
2019-01-30T04:30:10.218Z,98299.39
2019-01-30T04:32:36.855Z,98251.03
2019-01-30T04:35:05.337Z,98294.09
2019-01-30T04:37:31.931Z,98296.02
2019-01-30T04:39:58.502Z,98286.58
2019-01-30T04:42:25.086Z,98283.60
2019-01-30T04:44:51.394Z,98283.34
2019-01-30T04:47:17.959Z,98268.78
2019-01-30T04:49:44.305Z,98271.05
2019-01-30T04:52:11.154Z,98266.39
2019-01-30T04:54:37.515Z,98269.76
2019-01-30T04:57:03.917Z,98271.58
2019-01-30T04:59:30.214Z,98265.72
2019-01-30T05:01:56.572Z,98263.83
2019-01-30T05:04:22.893Z,98257.66
2019-01-30T05:06:49.465Z,98260.69
2019-01-30T05:09:15.754Z,98253.09
2019-01-30T05:11:42.322Z,98255.66
2019-01-30T05:14:08.656Z,98252.33
2019-01-30T05:16:34.958Z,98259.21
2019-01-30T05:19:01.279Z,98249.11
2019-01-30T05:21:27.863Z,98245.93
2019-01-30T05:23:54.233Z,98244.03
2019-01-30T05:26:20.684Z,98247.30
2019-01-30T05:28:47.004Z,98233.95
2019-01-30T05:31:13.362Z,98235.31
2019-01-30T05:33:40.010Z,98229.90
2019-01-30T05:36:06.498Z,98229.55
2019-01-30T05:38:33.073Z,98230.31
2019-01-30T05:40:59.644Z,98234.17
2019-01-30T05:43:25.972Z,98228.68
2019-01-30T05:45:52.508Z,98230.42
2019-01-30T05:48:18.867Z,98224.44
2019-01-30T05:50:45.178Z,98227.05
2019-01-30T05:53:11.512Z,98224.66
2019-01-30T05:55:38.062Z,98226.78
2019-01-30T05:58:04.631Z,98221.72
2019-01-30T06:00:34.585Z,98220.24
2019-01-30T06:03:00.946Z,98215.39
2019-01-30T06:05:27.501Z,98215.58
2019-01-30T06:07:53.824Z,98209.03
2019-01-30T06:10:20.492Z,98207.98
2019-01-30T06:12:47.067Z,98212.98
2019-01-30T06:15:16.696Z,98211.95
2019-01-30T06:17:43.312Z,98211.47
2019-01-30T06:20:24.615Z,98209.36
2019-01-30T06:22:51.860Z,98207.38
2019-01-30T06:25:18.240Z,98216.84
2019-01-30T06:27:44.852Z,98209.66
2019-01-30T06:30:17.398Z,98215.33
2019-01-30T06:32:43.785Z,98219.75
2019-01-30T06:35:10.761Z,98223.69
2019-01-30T06:37:37.065Z,98221.57
2019-01-30T06:40:11.980Z,98232.37
2019-01-30T06:42:38.707Z,98230.19
2019-01-30T06:45:07.330Z,98232.11
2019-01-30T06:47:33.641Z,98231.47
2019-01-30T06:50:00.304Z,98231.55
2019-01-30T06:52:26.882Z,98227.66
2019-01-30T06:54:53.463Z,98227.58
2019-01-30T06:57:20.016Z,98228.63
2019-01-30T06:59:46.329Z,98226.70
2019-01-30T07:02:12.750Z,98224.13
2019-01-30T07:04:39.087Z,98217.19
2019-01-30T07:07:05.636Z,98217.47
2019-01-30T07:09:32.229Z,98220.34
2019-01-30T07:11:58.779Z,98212.34
2019-01-30T07:14:25.137Z,98207.29
2019-01-30T07:16:51.709Z,98208.42
2019-01-30T07:19:18.065Z,98209.22
2019-01-30T07:21:44.498Z,98209.79
2019-01-30T07:24:10.820Z,98208.59
2019-01-30T07:26:38.279Z,98206.13
2019-01-30T07:29:04.853Z,98203.11
2019-01-30T07:31:31.520Z,98204.02
2019-01-30T07:33:58.140Z,98204.94
2019-01-30T07:36:24.703Z,98207.77
2019-01-30T07:38:51.274Z,98206.48
2019-01-30T07:41:17.849Z,98210.09
2019-01-30T07:43:44.185Z,98212.19
2019-01-30T07:46:10.500Z,98219.75
2019-01-30T07:48:36.817Z,98210.81
2019-01-30T07:51:03.488Z,98220.75
2019-01-30T07:53:29.816Z,98214.56
2019-01-30T07:55:56.148Z,98218.80
2019-01-30T07:58:22.475Z,98219.83
2019-01-30T08:00:48.834Z,98221.75
2019-01-30T08:03:15.454Z,98219.45
2019-01-30T08:05:42.806Z,98223.31
2019-01-30T08:08:09.564Z,98221.28
2019-01-30T08:10:36.159Z,98219.14
2019-01-30T08:13:03.002Z,98170.80
2019-01-30T08:15:29.413Z,98218.36
2019-01-30T08:17:55.719Z,98217.02
2019-01-30T08:20:22.031Z,98210.91
2019-01-30T08:22:49.480Z,98214.58
2019-01-30T08:25:18.682Z,98211.59
2019-01-30T08:27:45.405Z,98211.20
2019-01-30T08:30:23.542Z,98214.66
2019-01-30T08:32:50.203Z,98209.59
2019-01-30T08:35:19.070Z,98205.66
2019-01-30T08:37:45.959Z,98215.97
2019-01-30T08:40:12.846Z,98218.84
2019-01-30T08:42:39.545Z,98212.53
2019-01-30T08:45:17.038Z,98213.63
2019-01-30T08:47:43.456Z,98213.45
2019-01-30T08:50:12.363Z,98215.02
2019-01-30T08:52:38.831Z,98214.89
2019-01-30T08:55:09.983Z,98209.09
2019-01-30T08:57:36.305Z,98218.45
2019-01-30T09:00:11.037Z,98215.88
2019-01-30T09:02:37.335Z,98215.28
2019-01-30T09:05:07.609Z,98208.81
2019-01-30T09:07:43.652Z,98207.77
2019-01-30T09:10:07.634Z,98204.56
2019-01-30T09:12:34.188Z,98207.69
2019-01-30T09:15:00.521Z,98200.62
2019-01-30T09:17:27.940Z,98206.55
2019-01-30T09:19:54.500Z,98207.43
2019-01-30T09:22:21.104Z,98208.92
2019-01-30T09:24:47.411Z,98204.72
2019-01-30T09:27:13.737Z,98208.86
2019-01-30T09:29:40.042Z,98210.78
2019-01-30T09:32:06.388Z,98214.19
2019-01-30T09:34:32.735Z,98199.30
2019-01-30T09:36:59.060Z,98205.88
2019-01-30T09:39:25.383Z,98198.44
2019-01-30T09:41:51.960Z,98199.19
2019-01-30T09:44:18.275Z,98206.16
2019-01-30T09:46:44.584Z,98203.55
2019-01-30T09:49:10.910Z,98197.66
2019-01-30T09:51:37.230Z,98193.56
2019-01-30T09:54:03.846Z,98187.56
2019-01-30T09:56:30.204Z,98192.94
2019-01-30T09:58:56.512Z,98189.88
2019-01-30T10:01:23.245Z,98195.02
2019-01-30T10:03:49.793Z,98185.23
2019-01-30T10:06:16.403Z,98188.27
2019-01-30T10:08:42.982Z,98183.31
2019-01-30T10:11:09.325Z,98180.76
2019-01-30T10:13:37.516Z,98184.51
2019-01-30T10:16:04.164Z,98180.51
2019-01-30T10:18:30.454Z,98177.07
2019-01-30T10:20:56.835Z,98181.97
2019-01-30T10:23:23.162Z,98177.80
2019-01-30T10:25:50.836Z,98168.95
2019-01-30T10:28:17.337Z,98165.98
2019-01-30T10:30:46.355Z,98163.30
2019-01-30T10:33:14.022Z,98156.91
2019-01-30T10:35:41.600Z,98152.19
2019-01-30T10:38:07.939Z,98162.22
2019-01-30T10:40:34.232Z,98160.92
2019-01-30T10:43:00.848Z,98165.17
2019-01-30T10:45:27.200Z,98153.95
2019-01-30T10:47:53.981Z,98158.10
2019-01-30T10:50:23.968Z,98148.93
2019-01-30T10:52:50.382Z,98150.34
2019-01-30T10:55:20.390Z,98156.58
2019-01-30T10:57:49.559Z,98150.77
2019-01-30T11:00:26.155Z,98147.14
2019-01-30T11:02:52.498Z,98145.79
2019-01-30T11:05:18.939Z,98146.21
2019-01-30T11:07:45.275Z,98145.72
2019-01-30T11:10:15.745Z,98140.11
2019-01-30T11:12:42.074Z,98138.80
2019-01-30T11:15:24.533Z,98138.30
2019-01-30T11:17:51.442Z,98128.44
2019-01-30T11:20:21.951Z,98130.53
2019-01-30T11:22:47.843Z,98116.63
2019-01-30T11:25:28.261Z,98121.52
2019-01-30T11:27:55.863Z,98116.36
2019-01-30T11:30:22.301Z,98119.69
2019-01-30T11:32:48.614Z,98118.41
2019-01-30T11:35:15.252Z,98107.22
2019-01-30T11:37:41.796Z,98115.84
2019-01-30T11:40:16.069Z,98109.12
2019-01-30T11:42:42.772Z,98108.24
2019-01-30T11:45:25.574Z,98107.24
2019-01-30T11:47:52.896Z,98098.47
2019-01-30T11:50:20.272Z,98101.67
2019-01-30T11:52:46.578Z,98092.95
2019-01-30T11:55:17.633Z,98087.34
2019-01-30T11:57:44.246Z,98080.85
2019-01-30T12:00:22.958Z,98076.60
2019-01-30T12:02:51.341Z,98079.31
2019-01-30T12:05:17.952Z,98069.06
2019-01-30T12:07:44.294Z,98070.23
2019-01-30T12:10:14.357Z,98067.02
2019-01-30T12:12:41.482Z,98069.59
2019-01-30T12:15:15.335Z,98074.39
2019-01-30T12:17:41.922Z,98078.31
2019-01-30T12:20:11.506Z,98079.47
2019-01-30T12:22:37.815Z,98075.39
2019-01-30T12:25:09.073Z,98073.23
2019-01-30T12:27:35.421Z,98074.25
2019-01-30T12:30:04.740Z,98064.98
2019-01-30T12:32:31.368Z,98066.47
2019-01-30T12:34:57.989Z,98073.00
2019-01-30T12:37:24.315Z,98078.16
2019-01-30T12:39:50.931Z,98082.77
2019-01-30T12:42:23.130Z,98075.78
2019-01-30T12:44:49.449Z,98083.19
2019-01-30T12:47:19.885Z,98083.23
2019-01-30T12:49:43.969Z,98074.08
2019-01-30T12:52:10.674Z,98074.34
2019-01-30T12:54:37.015Z,98067.24
2019-01-30T12:57:03.603Z,98065.60
2019-01-30T12:59:29.950Z,98065.48
2019-01-30T13:01:56.557Z,98059.06
2019-01-30T13:04:23.117Z,98065.48
2019-01-30T13:06:49.714Z,98064.89
2019-01-30T13:09:16.031Z,98068.64
2019-01-30T13:11:42.335Z,98071.59
2019-01-30T13:14:08.662Z,98064.88
2019-01-30T13:16:35.223Z,98057.63
2019-01-30T13:19:01.854Z,98065.01
2019-01-30T13:21:28.499Z,98059.03
2019-01-30T13:23:54.870Z,98055.58
2019-01-30T13:26:21.191Z,98058.64
2019-01-30T13:28:47.790Z,98043.66
2019-01-30T13:31:14.480Z,98050.13
2019-01-30T13:33:41.121Z,98052.34
2019-01-30T13:36:07.696Z,98052.03
2019-01-30T13:38:34.330Z,98063.52
2019-01-30T13:41:00.937Z,98052.08
2019-01-30T13:43:27.548Z,98046.52
2019-01-30T13:45:53.907Z,98044.79
2019-01-30T13:48:20.659Z,98055.52
2019-01-30T13:50:46.972Z,98054.14
2019-01-30T13:53:14.411Z,98041.58
2019-01-30T13:55:41.121Z,98039.74
2019-01-30T13:58:07.530Z,98048.61
2019-01-30T14:00:36.132Z,98036.56
2019-01-30T14:03:03.571Z,98049.33
2019-01-30T14:05:30.392Z,98056.20
2019-01-30T14:07:57.895Z,98055.71
2019-01-30T14:10:27.012Z,98039.42
2019-01-30T14:12:52.785Z,98040.50
2019-01-30T14:15:23.738Z,98032.67
2019-01-30T14:17:50.375Z,98039.65
2019-01-30T14:20:18.207Z,98036.73
2019-01-30T14:22:45.221Z,98039.43
2019-01-30T14:25:13.798Z,98039.19
2019-01-30T14:27:40.157Z,98038.97
2019-01-30T14:30:17.809Z,98046.39
2019-01-30T14:32:44.358Z,98046.28
2019-01-30T14:35:11.227Z,98042.98
2019-01-30T14:37:37.702Z,98043.06
2019-01-30T14:40:12.711Z,98039.19
2019-01-30T14:42:39.325Z,98017.08
2019-01-30T14:45:10.991Z,98040.85
2019-01-30T14:47:37.729Z,98044.13
2019-01-30T14:50:09.875Z,98042.54
2019-01-30T14:52:36.470Z,98011.16
2019-01-30T14:55:05.944Z,98046.45
2019-01-30T14:57:32.291Z,98042.02
2019-01-30T14:59:58.909Z,98039.55
2019-01-30T15:02:25.234Z,98031.77
2019-01-30T15:04:51.886Z,98037.64
2019-01-30T15:07:28.129Z,98038.11
2019-01-30T15:09:46.465Z,98038.28
2019-01-30T15:12:12.793Z,98041.53
2019-01-30T15:14:39.093Z,98033.16
2019-01-30T15:17:05.438Z,98034.92
2019-01-30T15:19:31.958Z,98034.35
2019-01-30T15:21:58.524Z,98028.50
2019-01-30T15:24:24.835Z,98033.61
2019-01-30T15:26:52.307Z,98034.93
2019-01-30T15:29:18.921Z,98031.20
2019-01-30T15:31:45.252Z,98028.00
2019-01-30T15:34:11.600Z,98031.05
2019-01-30T15:36:38.196Z,98022.47
2019-01-30T15:39:07.055Z,98030.39
2019-01-30T15:41:33.993Z,98026.99
2019-01-30T15:44:00.596Z,98027.59
2019-01-30T15:46:27.030Z,98033.48
2019-01-30T15:48:53.585Z,98025.13
2019-01-30T15:51:19.911Z,98022.19
2019-01-30T15:53:46.479Z,98015.78
2019-01-30T15:56:12.825Z,98014.02
2019-01-30T15:58:39.374Z,98023.17
2019-01-30T16:01:10.438Z,98034.97
2019-01-30T16:03:36.788Z,98029.54
2019-01-30T16:06:03.650Z,98034.62
2019-01-30T16:08:29.984Z,98035.45
2019-01-30T16:10:57.695Z,98036.28
2019-01-30T16:13:24.278Z,98033.34
2019-01-30T16:15:57.998Z,98036.17
2019-01-30T16:18:24.622Z,98045.70
2019-01-30T16:20:51.204Z,98038.39
2019-01-30T16:23:20.842Z,98035.65
2019-01-30T16:25:47.135Z,98042.97
2019-01-30T16:28:13.526Z,98040.73
2019-01-30T16:30:42.188Z,98048.23
2019-01-30T16:33:08.303Z,98054.95
2019-01-30T16:35:34.909Z,98064.02
2019-01-30T16:38:01.534Z,98070.98
2019-01-30T16:40:28.171Z,98072.13
2019-01-30T16:42:55.591Z,98075.47
2019-01-30T16:45:28.623Z,98073.01
2019-01-30T16:47:55.396Z,98081.05
2019-01-30T16:50:22.198Z,98083.16
2019-01-30T16:52:48.625Z,98088.34
2019-01-30T16:55:17.763Z,98087.27
2019-01-30T16:57:44.445Z,98088.81
2019-01-30T17:00:22.197Z,98095.18
2019-01-30T17:02:48.891Z,98096.33
2019-01-30T17:05:16.049Z,98101.86
2019-01-30T17:07:42.354Z,98108.58
2019-01-30T17:10:13.283Z,98108.96
2019-01-30T17:12:39.899Z,98109.79
2019-01-30T17:15:11.226Z,98112.02
2019-01-30T17:17:37.532Z,98116.22
2019-01-30T17:20:12.340Z,98120.45
2019-01-30T17:22:39.011Z,98123.96
2019-01-30T17:25:07.475Z,98120.88
2019-01-30T17:27:34.058Z,98118.39
2019-01-30T17:30:00.404Z,98120.23
2019-01-30T17:32:27.049Z,98119.28
2019-01-30T17:34:54.425Z,98116.94
2019-01-30T17:37:20.827Z,98115.73
2019-01-30T17:39:47.439Z,98121.38
2019-01-30T17:42:14.040Z,98113.24
2019-01-30T17:44:41.399Z,98109.08
2019-01-30T17:47:08.127Z,98106.84
2019-01-30T17:49:35.789Z,98109.86
2019-01-30T17:52:02.117Z,98108.91
2019-01-30T17:54:28.440Z,98115.76
2019-01-30T17:56:54.763Z,98117.03
2019-01-30T17:59:21.083Z,98116.31
2019-01-30T18:01:47.398Z,98119.55
2019-01-30T18:04:13.714Z,98116.11
2019-01-30T18:06:40.296Z,98116.38
2019-01-30T18:09:06.948Z,98117.24
2019-01-30T18:11:33.968Z,98123.71
2019-01-30T18:14:00.554Z,98130.13
2019-01-30T18:16:27.036Z,98133.66
2019-01-30T18:18:54.665Z,98131.61
2019-01-30T18:21:21.210Z,98136.14
2019-01-30T18:23:47.819Z,98139.78
2019-01-30T18:26:14.427Z,98129.81
2019-01-30T18:28:40.999Z,98133.25
2019-01-30T18:31:07.597Z,98133.62
2019-01-30T18:33:33.909Z,98139.64
2019-01-30T18:36:00.292Z,98136.36
2019-01-30T18:38:26.615Z,98144.23
2019-01-30T18:40:52.990Z,98142.57
2019-01-30T18:43:19.551Z,98142.00
2019-01-30T18:45:46.124Z,98144.07
2019-01-30T18:48:12.455Z,98133.89
2019-01-30T18:50:38.925Z,98132.70
2019-01-30T18:53:05.618Z,98140.41
2019-01-30T18:55:32.302Z,98143.74
2019-01-30T18:57:58.643Z,98141.73
2019-01-30T19:00:35.256Z,98146.27
2019-01-30T19:03:04.283Z,98146.72
2019-01-30T19:05:32.316Z,98143.50
2019-01-30T19:07:58.663Z,98143.48
2019-01-30T19:10:25.163Z,98144.09
2019-01-30T19:12:51.866Z,98146.94
2019-01-30T19:15:22.310Z,98134.78
2019-01-30T19:17:49.072Z,98148.45
2019-01-30T19:20:26.682Z,98145.86
2019-01-30T19:22:53.468Z,98144.67
2019-01-30T19:25:20.129Z,98148.67
2019-01-30T19:27:46.808Z,98147.05
2019-01-30T19:30:23.755Z,98145.38
2019-01-30T19:32:50.149Z,98152.55
2019-01-30T19:35:17.072Z,98148.91
2019-01-30T19:37:43.628Z,98150.88
2019-01-30T19:40:12.604Z,98150.27
2019-01-30T19:42:39.281Z,98146.95
2019-01-30T19:45:11.425Z,98143.91
2019-01-30T19:47:38.133Z,98143.92
2019-01-30T19:50:18.630Z,98153.47
2019-01-30T19:52:45.071Z,98152.23
2019-01-30T19:55:13.051Z,98154.06
2019-01-30T19:57:39.425Z,98153.73
2019-01-30T20:00:16.948Z,98151.08
2019-01-30T20:02:43.427Z,98150.74
2019-01-30T20:05:12.968Z,98147.92
2019-01-30T20:07:39.684Z,98143.78
2019-01-30T20:10:17.154Z,98147.83
2019-01-30T20:12:43.831Z,98148.20
2019-01-30T20:15:10.997Z,98148.87
2019-01-30T20:17:37.565Z,98141.09
2019-01-30T20:20:11.217Z,98145.82
2019-01-30T20:22:37.857Z,98149.60
2019-01-30T20:25:09.865Z,98150.62
2019-01-30T20:27:36.215Z,98150.11
2019-01-30T20:30:10.746Z,98150.69
2019-01-30T20:32:37.403Z,98155.48
2019-01-30T20:35:06.059Z,98152.52
2019-01-30T20:37:32.668Z,98151.95
2019-01-30T20:39:59.367Z,98141.58
2019-01-30T20:42:25.693Z,98156.47
2019-01-30T20:44:52.308Z,98156.86
2019-01-30T20:47:18.986Z,98152.86
2019-01-30T20:49:45.303Z,98155.72
2019-01-30T20:52:11.705Z,98163.82
2019-01-30T20:54:38.106Z,98159.32
2019-01-30T20:57:04.636Z,98163.30
2019-01-30T20:59:31.205Z,98120.22
2019-01-30T21:01:57.811Z,98158.52
2019-01-30T21:04:24.202Z,98169.02
2019-01-30T21:06:50.579Z,98162.34
2019-01-30T21:09:16.978Z,98173.55
2019-01-30T21:11:43.293Z,98167.26
2019-01-30T21:14:09.939Z,98162.23
2019-01-30T21:16:36.557Z,98166.72
2019-01-30T21:19:03.391Z,98170.97
2019-01-30T21:21:30.018Z,98164.59
2019-01-30T21:23:56.597Z,98169.80
2019-01-30T21:26:23.296Z,98168.80
2019-01-30T21:28:49.865Z,98166.35
2019-01-30T21:31:16.317Z,98160.56
2019-01-30T21:33:44.973Z,98158.84
2019-01-30T21:36:11.301Z,98159.34
2019-01-30T21:38:37.905Z,98166.95
2019-01-30T21:41:04.221Z,98163.55
2019-01-30T21:43:30.968Z,98165.91
2019-01-30T21:45:57.270Z,98166.89
2019-01-30T21:48:23.836Z,98161.36
2019-01-30T21:50:50.147Z,98166.65
2019-01-30T21:53:16.492Z,98167.84
2019-01-30T21:55:43.101Z,98167.73
2019-01-30T21:58:09.426Z,98168.45
2019-01-30T22:00:35.765Z,98168.20
2019-01-30T22:03:02.525Z,98174.80
2019-01-30T22:05:29.036Z,98179.05
2019-01-30T22:08:00.869Z,98180.24
2019-01-30T22:10:26.115Z,98177.75
2019-01-30T22:12:54.924Z,98179.39
2019-01-30T22:15:21.464Z,98181.16
2019-01-30T22:17:48.099Z,98177.16
2019-01-30T22:20:21.481Z,98176.10
2019-01-30T22:22:48.051Z,98175.41
2019-01-30T22:25:20.300Z,98177.76
2019-01-30T22:27:46.689Z,98178.12
2019-01-30T22:30:20.641Z,98182.62
2019-01-30T22:32:47.338Z,98182.45
2019-01-30T22:35:13.827Z,98184.12
2019-01-30T22:37:40.473Z,98188.02
2019-01-30T22:40:11.849Z,98188.72
2019-01-30T22:42:38.381Z,98194.73
2019-01-30T22:45:10.699Z,98193.75
2019-01-30T22:47:37.089Z,98187.44
2019-01-30T22:50:07.660Z,98196.50
2019-01-30T22:52:34.260Z,98193.77
2019-01-30T22:55:00.867Z,98195.28
2019-01-30T22:57:27.189Z,98200.66
2019-01-30T22:59:53.517Z,98196.06
2019-01-30T23:02:20.062Z,98193.81
2019-01-30T23:04:55.336Z,98197.39
2019-01-30T23:07:39.489Z,98194.81
2019-01-30T23:10:23.447Z,98193.52
2019-01-30T23:13:04.547Z,98201.36
2019-01-30T23:15:39.388Z,98187.23
2019-01-30T23:18:36.927Z,98191.45
2019-01-30T23:21:20.652Z,98191.34
2019-01-30T23:24:07.628Z,98191.05
2019-01-30T23:26:48.423Z,98196.92
2019-01-30T23:29:54.468Z,98192.36
2019-01-30T23:32:32.218Z,98194.59
2019-01-30T23:35:16.611Z,98185.33
2019-01-30T23:37:57.536Z,98195.55
2019-01-30T23:40:42.187Z,98197.95
2019-01-30T23:43:14.195Z,98203.31
2019-01-30T23:46:04.090Z,98196.41
2019-01-30T23:48:42.053Z,98199.20
2019-01-30T23:51:30.802Z,98193.61
2019-01-30T23:54:31.138Z,98196.02
2019-01-30T23:57:28.512Z,98196.84
